Time;durP1;ratioP1;P1;durP2;ratioP2;P2;SDS_P1;SDS_P2;PMS_P1;PMS_P2;Temp;Humidity;BMP_temperature;BMP_pressure;BME280_temperature;BME280_humidity;BME280_pressure;Samples;Min_cycle;Max_cycle;Signal;HPM_P1;HPM_P2
2023/07/23 00:01:01;;;;;;;;;;;;;;;17.92;nan;100641.13;4099185;28;20766;-65
2023/07/23 00:03:03;;;;;;;;;;;;;;;17.89;nan;100631.47;4097075;28;20274;-65
2023/07/23 00:05:05;;;;;;;;;;;;;;;17.88;nan;100638.00;4097700;28;19922;-65
2023/07/23 00:07:07;;;;;;;;;;;;;;;17.88;nan;100637.13;4097576;28;19923;-66
2023/07/23 00:09:10;;;;;;;;;;;;;;;17.86;nan;100623.72;4097462;28;19922;-64
2023/07/23 00:11:12;;;;;;;;;;;;;;;17.87;nan;100627.25;4098697;28;19930;-65
2023/07/23 00:13:14;;;;;;;;;;;;;;;17.87;nan;100622.66;4097935;28;19926;-65
2023/07/23 00:15:16;;;;;;;;;;;;;;;17.83;nan;100619.53;4098127;28;19923;-65
2023/07/23 00:17:19;;;;;;;;;;;;;;;17.81;nan;100615.38;4098653;28;19926;-65
2023/07/23 00:19:21;;;;;;;;;;;;;;;17.80;nan;100610.97;4099431;28;19999;-64
2023/07/23 00:21:24;;;;;;;;;;;;;;;17.80;nan;100613.69;4097888;28;19937;-66
2023/07/23 00:23:26;;;;;;;;;;;;;;;17.78;nan;100607.63;4097560;28;20526;-65
2023/07/23 00:25:29;;;;;;;;;;;;;;;17.77;nan;100608.69;4098333;28;19927;-66
2023/07/23 00:27:31;;;;;;;;;;;;;;;17.76;nan;100609.75;4097312;28;19942;-66
2023/07/23 00:29:35;;;;;;;;;;;;;;;17.74;nan;100601.78;4096254;28;19926;-66
2023/07/23 00:31:37;;;;;;;;;;;;;;;17.74;nan;100601.78;4097798;28;19933;-65
2023/07/23 00:33:41;;;;;;;;;;;;;;;17.73;nan;100602.03;4096761;28;20301;-65
2023/07/23 00:35:43;;;;;;;;;;;;;;;17.72;nan;100597.63;4097717;28;20400;-66
2023/07/23 00:37:44;;;;;;;;;;;;;;;17.71;nan;100596.78;4097826;28;19933;-66
2023/07/23 00:39:46;;;;;;;;;;;;;;;17.71;nan;100596.78;4098870;28;19937;-64
2023/07/23 00:41:49;;;;;;;;;;;;;;;17.72;nan;100592.16;4098211;28;20014;-66
2023/07/23 00:43:51;;;;;;;;;;;;;;;17.71;nan;100585.88;4096589;28;19964;-65
2023/07/23 00:45:53;;;;;;;;;;;;;;;17.72;nan;100586.69;4097950;28;20304;-65
2023/07/23 00:47:55;;;;;;;;;;;;;;;17.71;nan;100580.41;4096141;28;19923;-65
2023/07/23 00:49:59;;;;;;;;;;;;;;;17.72;nan;100579.31;4097157;28;19927;-65
2023/07/23 00:52:01;;;;;;;;;;;;;;;17.72;nan;100586.69;4098003;28;20281;-64
2023/07/23 00:54:03;;;;;;;;;;;;;;;17.72;nan;100581.22;4097463;28;19933;-64
2023/07/23 00:56:08;;;;;;;;;;;;;;;17.70;nan;100577.91;4096741;28;20400;-66
2023/07/23 00:58:10;;;;;;;;;;;;;;;17.71;nan;100574.09;4096920;28;19929;-65
2023/07/23 01:00:13;;;;;;;;;;;;;;;17.70;nan;100573.25;4096488;28;19930;-65
2023/07/23 01:02:15;;;;;;;;;;;;;;;17.70;nan;100565.06;4097341;28;19926;-64
2023/07/23 01:04:17;;;;;;;;;;;;;;;17.70;nan;100572.44;4095428;28;19956;-65
2023/07/23 01:06:21;;;;;;;;;;;;;;;17.69;nan;100571.56;4096583;28;20000;-65
2023/07/23 01:08:22;;;;;;;;;;;;;;;17.66;nan;100555.66;4097086;28;20282;-64
2023/07/23 01:10:24;;;;;;;;;;;;;;;17.66;nan;100555.66;4097762;28;19926;-65
2023/07/23 01:12:26;;;;;;;;;;;;;;;17.65;nan;100551.28;4097460;28;20309;-65
2023/07/23 01:14:27;;;;;;;;;;;;;;;17.63;nan;100546.03;4097617;28;19923;-65
2023/07/23 01:16:30;;;;;;;;;;;;;;;17.61;nan;100550.88;4097514;28;19929;-65
2023/07/23 01:18:32;;;;;;;;;;;;;;;17.63;nan;100553.38;4097175;28;19933;-65
2023/07/23 01:20:34;;;;;;;;;;;;;;;17.63;nan;100551.50;4097411;28;19926;-65
2023/07/23 01:22:38;;;;;;;;;;;;;;;17.63;nan;100537.84;4111687;28;19926;-65
2023/07/23 01:24:40;;;;;;;;;;;;;;;17.61;nan;100539.13;4089412;28;20397;-65
2023/07/23 01:26:43;;;;;;;;;;;;;;;17.61;nan;100534.47;4097781;28;19937;-65
2023/07/23 01:28:45;;;;;;;;;;;;;;;17.59;nan;100533.88;4096366;28;20412;-65
2023/07/23 01:30:47;;;;;;;;;;;;;;;17.59;nan;100531.16;4095894;28;19922;-63
2023/07/23 01:32:49;;;;;;;;;;;;;;;17.59;nan;100538.53;4095340;28;20404;-65
2023/07/23 01:34:51;;;;;;;;;;;;;;;17.58;nan;100534.13;4097110;28;19922;-65
2023/07/23 01:36:53;;;;;;;;;;;;;;;17.56;nan;100541.72;4088669;28;19923;-65
2023/07/23 01:38:57;;;;;;;;;;;;;;;17.56;nan;100537.06;4095283;28;19930;-65
2023/07/23 01:40:58;;;;;;;;;;;;;;;17.57;nan;100537.91;4096832;28;19922;-65
2023/07/23 01:43:00;;;;;;;;;;;;;;;17.59;nan;100544.00;4094686;28;20004;-65
2023/07/23 01:45:03;;;;;;;;;;;;;;;17.58;nan;100547.78;4089293;28;19927;-65
2023/07/23 01:47:04;;;;;;;;;;;;;;;17.57;nan;100562.47;4095447;28;19922;-65
2023/07/23 01:49:06;;;;;;;;;;;;;;;17.55;nan;100559.16;4098067;28;19923;-64
2023/07/23 01:51:10;;;;;;;;;;;;;;;17.54;nan;100557.47;4095755;28;19969;-65
2023/07/23 01:53:12;;;;;;;;;;;;;;;17.55;nan;100550.97;4088224;28;19922;-65
2023/07/23 01:55:15;;;;;;;;;;;;;;;17.54;nan;100549.28;4097519;28;19980;-66
2023/07/23 01:57:17;;;;;;;;;;;;;;;17.52;nan;100546.78;4088397;28;19929;-66
2023/07/23 01:59:19;;;;;;;;;;;;;;;17.51;nan;100545.13;4096201;28;19934;-65
2023/07/23 02:01:21;;;;;;;;;;;;;;;17.51;nan;100542.41;4096536;28;20404;-65
2023/07/23 02:03:23;;;;;;;;;;;;;;;17.50;nan;100548.91;4096569;28;19923;-65
2023/07/23 02:05:25;;;;;;;;;;;;;;;17.47;nan;100550.19;4096430;28;20384;-65
2023/07/23 02:07:27;;;;;;;;;;;;;;;17.45;nan;100552.31;4096925;28;19927;-65
2023/07/23 02:09:29;;;;;;;;;;;;;;;17.42;nan;100558.22;4095847;28;19922;-65
2023/07/23 02:11:32;;;;;;;;;;;;;;;17.38;nan;100567.97;4097126;28;19933;-64
2023/07/23 02:13:34;;;;;;;;;;;;;;;17.37;nan;100576.38;4095886;28;19926;-65
2023/07/23 02:15:36;;;;;;;;;;;;;;;17.35;nan;100573.00;4096897;28;19930;-65
2023/07/23 02:17:38;;;;;;;;;;;;;;;17.33;nan;100583.34;4095669;28;20348;-65
2023/07/23 02:19:40;;;;;;;;;;;;;;;17.30;nan;100576.41;4097238;28;19941;-65
2023/07/23 02:21:43;;;;;;;;;;;;;;;17.26;nan;100578.78;4097194;28;19923;-65
2023/07/23 02:23:45;;;;;;;;;;;;;;;17.23;nan;100587.41;4095145;28;19923;-66
2023/07/23 02:25:48;;;;;;;;;;;;;;;17.24;nan;100593.69;4096531;28;20300;-64
2023/07/23 02:27:52;;;;;;;;;;;;;;;17.25;nan;100607.13;4096759;28;19928;-66
2023/07/23 02:29:54;;;;;;;;;;;;;;;17.26;nan;100602.50;4096555;28;19932;-65
2023/07/23 02:31:56;;;;;;;;;;;;;;;17.26;nan;100608.78;4097715;28;20300;-65
2023/07/23 02:33:58;;;;;;;;;;;;;;;17.26;nan;100610.69;4098146;28;19932;-65
2023/07/23 02:36:01;;;;;;;;;;;;;;;17.25;nan;100612.56;4100291;28;19922;-66
2023/07/23 02:38:02;;;;;;;;;;;;;;;17.26;nan;100608.78;4099257;28;19922;-65
2023/07/23 02:40:05;;;;;;;;;;;;;;;17.25;nan;100614.47;4100595;28;19932;-65
2023/07/23 02:42:07;;;;;;;;;;;;;;;17.24;nan;100618.25;4099916;28;19922;-66
2023/07/23 02:44:12;;;;;;;;;;;;;;;17.22;nan;100604.84;4098056;28;19922;-66
2023/07/23 02:46:14;;;;;;;;;;;;;;;17.21;nan;100597.72;4098651;28;19936;-66
2023/07/23 02:48:15;;;;;;;;;;;;;;;17.22;nan;100604.00;4098510;28;19922;-65
2023/07/23 02:50:17;;;;;;;;;;;;;;;17.20;nan;100587.84;4082619;29;19929;-65
2023/07/23 02:52:19;;;;;;;;;;;;;;;17.23;nan;100584.69;4098769;28;20491;-65
2023/07/23 02:54:21;;;;;;;;;;;;;;;17.21;nan;100588.69;4100111;28;19922;-65
2023/07/23 02:56:24;;;;;;;;;;;;;;;17.21;nan;100592.28;4096216;28;20403;-65
2023/07/23 02:58:26;;;;;;;;;;;;;;;17.22;nan;100587.63;4097835;28;19926;-65
2023/07/23 03:00:30;;;;;;;;;;;;;;;17.25;nan;100590.75;4099077;28;19927;-66
2023/07/23 03:02:33;;;;;;;;;;;;;;;17.26;nan;100591.59;4097810;28;19931;-64
2023/07/23 03:04:35;;;;;;;;;;;;;;;17.24;nan;100593.69;4099133;28;19934;-65
2023/07/23 03:06:37;;;;;;;;;;;;;;;17.24;nan;100597.28;4097984;28;20315;-65
2023/07/23 03:08:39;;;;;;;;;;;;;;;17.21;nan;100600.47;4097781;28;19930;-65
2023/07/23 03:10:41;;;;;;;;;;;;;;;17.14;nan;100596.94;4098248;28;19922;-65
2023/07/23 03:12:43;;;;;;;;;;;;;;;17.08;nan;100595.09;4097888;28;20355;-65
2023/07/23 03:14:44;;;;;;;;;;;;;;;17.04;nan;100602.09;4097845;28;19922;-65
2023/07/23 03:16:48;;;;;;;;;;;;;;;17.01;nan;100614.28;4099500;28;19926;-65
2023/07/23 03:18:50;;;;;;;;;;;;;;;16.96;nan;100615.97;4099102;28;20369;-66
2023/07/23 03:20:51;;;;;;;;;;;;;;;16.92;nan;100601.97;4098269;28;19927;-66
2023/07/23 03:22:54;;;;;;;;;;;;;;;16.89;nan;100605.97;4096756;28;20438;-65
2023/07/23 03:24:56;;;;;;;;;;;;;;;16.86;nan;100602.84;4098673;28;20515;-65
2023/07/23 03:26:58;;;;;;;;;;;;;;;16.82;nan;100609.75;4098555;28;19922;-65
2023/07/23 03:29:00;;;;;;;;;;;;;;;16.81;nan;100613.56;4098462;28;19923;-65
2023/07/23 03:31:02;;;;;;;;;;;;;;;16.80;nan;100617.34;4097734;28;19927;-66
2023/07/23 03:33:06;;;;;;;;;;;;;;;16.76;nan;100608.78;4113499;28;19922;-66
2023/07/23 03:35:09;;;;;;;;;;;;;;;16.72;nan;100621.16;4099073;28;19926;-65
2023/07/23 03:37:11;;;;;;;;;;;;;;;16.67;nan;100613.66;4098875;28;20380;-66
2023/07/23 03:39:16;;;;;;;;;;;;;;;16.65;nan;100617.66;4098091;28;20596;-66
2023/07/23 03:41:18;;;;;;;;;;;;;;;16.63;nan;100617.03;4098884;28;19923;-65
2023/07/23 03:43:20;;;;;;;;;;;;;;;16.63;nan;100609.72;4097818;28;19926;-65
2023/07/23 03:45:23;;;;;;;;;;;;;;;16.62;nan;100609.94;4089372;28;19977;-65
2023/07/23 03:47:25;;;;;;;;;;;;;;;16.61;nan;100591.88;4098229;28;20455;-65
2023/07/23 03:49:29;;;;;;;;;;;;;;;16.61;nan;100600.91;4098296;28;19923;-65
2023/07/23 03:51:33;;;;;;;;;;;;;;;16.66;nan;100605.69;4089883;28;19926;-65
2023/07/23 03:53:35;;;;;;;;;;;;;;;16.68;nan;100604.41;4098264;28;19936;-66
2023/07/23 03:55:37;;;;;;;;;;;;;;;16.70;nan;100606.94;4098795;28;19922;-66
2023/07/23 03:57:39;;;;;;;;;;;;;;;16.69;nan;100602.53;4098192;28;19933;-64
2023/07/23 03:59:42;;;;;;;;;;;;;;;16.71;nan;100603.16;4098780;28;19932;-64
2023/07/23 04:01:44;;;;;;;;;;;;;;;16.70;nan;100598.75;4097744;28;19933;-65
2023/07/23 04:03:47;;;;;;;;;;;;;;;16.68;nan;100592.69;4096331;28;20399;-65
2023/07/23 04:05:50;;;;;;;;;;;;;;;16.67;nan;100600.00;4098555;28;19929;-65
2023/07/23 04:07:52;;;;;;;;;;;;;;;16.65;nan;100599.41;4097994;28;19941;-64
2023/07/23 04:09:54;;;;;;;;;;;;;;;16.65;nan;100595.84;4097861;28;19929;-64
2023/07/23 04:11:58;;;;;;;;;;;;;;;16.65;nan;100596.69;4098307;28;19922;-64
2023/07/23 04:14:00;;;;;;;;;;;;;;;16.66;nan;100597.50;4098387;28;19929;-64
2023/07/23 04:16:06;;;;;;;;;;;;;;;16.64;nan;100597.72;4098910;28;19936;-66
2023/07/23 04:18:11;;;;;;;;;;;;;;;16.62;nan;100597.13;4097657;28;19927;-66
2023/07/23 04:20:13;;;;;;;;;;;;;;;16.62;nan;100608.03;4096749;28;19969;-65
2023/07/23 04:22:17;;;;;;;;;;;;;;;16.60;nan;100615.59;4097543;28;20389;-65
2023/07/23 04:24:19;;;;;;;;;;;;;;;16.60;nan;100612.03;4097591;28;19922;-66
2023/07/23 04:26:21;;;;;;;;;;;;;;;16.58;nan;100615.81;4097992;28;19934;-65
2023/07/23 04:28:24;;;;;;;;;;;;;;;16.58;nan;100623.16;4103963;28;19933;-66
2023/07/23 04:30:26;;;;;;;;;;;;;;;16.53;nan;100610.16;4097222;28;19926;-65
2023/07/23 04:32:28;;;;;;;;;;;;;;;16.52;nan;100622.16;4096547;28;19929;-66
2023/07/23 04:34:29;;;;;;;;;;;;;;;16.51;nan;100619.66;4098267;28;19933;-65
2023/07/23 04:36:31;;;;;;;;;;;;;;;16.50;nan;100607.06;4097281;28;19933;-64
2023/07/23 04:38:34;;;;;;;;;;;;;;;16.47;nan;100608.31;4097603;28;19926;-65
2023/07/23 04:40:38;;;;;;;;;;;;;;;16.45;nan;100605.00;4089674;28;19926;-65
2023/07/23 04:42:40;;;;;;;;;;;;;;;16.45;nan;100601.44;4096413;28;20304;-65
2023/07/23 04:44:42;;;;;;;;;;;;;;;16.47;nan;100600.16;4097662;28;19926;-65
2023/07/23 04:46:44;;;;;;;;;;;;;;;16.48;nan;100604.56;4097672;28;19928;-66
2023/07/23 04:48:45;;;;;;;;;;;;;;;16.46;nan;100601.22;4096932;28;19926;-65
2023/07/23 04:50:55;;;;;;;;;;;;;;;16.46;nan;100594.94;4097935;28;19922;-64
2023/07/23 04:52:57;;;;;;;;;;;;;;;16.47;nan;100602.88;4097739;28;19930;-65
2023/07/23 04:55:01;;;;;;;;;;;;;;;16.48;nan;100595.53;4097090;28;19937;-65
2023/07/23 04:57:03;;;;;;;;;;;;;;;16.46;nan;100597.66;4088841;28;19929;-65
2023/07/23 04:59:05;;;;;;;;;;;;;;;16.47;nan;100597.41;4097312;28;19923;-65
2023/07/23 05:01:07;;;;;;;;;;;;;;;16.46;nan;100603.94;4095973;28;19923;-65
2023/07/23 05:03:11;;;;;;;;;;;;;;;16.48;nan;100598.28;4096934;28;20388;-66
2023/07/23 05:05:13;;;;;;;;;;;;;;;16.49;nan;100598.06;4096923;28;19949;-65
2023/07/23 05:07:15;;;;;;;;;;;;;;;16.49;nan;100597.19;4097435;28;20384;-66
2023/07/23 05:09:17;;;;;;;;;;;;;;;16.50;nan;100591.53;4097428;28;19923;-65
2023/07/23 05:11:21;;;;;;;;;;;;;;;16.51;nan;100604.13;4096981;28;20372;-65
2023/07/23 05:13:22;;;;;;;;;;;;;;;16.51;nan;100595.09;4096401;28;20433;-65
2023/07/23 05:15:24;;;;;;;;;;;;;;;16.53;nan;100598.44;4098114;28;19937;-65
2023/07/23 05:17:27;;;;;;;;;;;;;;;16.54;nan;100600.13;4097346;28;19932;-64
2023/07/23 05:19:29;;;;;;;;;;;;;;;16.58;nan;100598.59;4096289;28;20003;-65
2023/07/23 05:21:34;;;;;;;;;;;;;;;16.58;nan;100604.91;4097006;29;19933;-65
2023/07/23 05:23:37;;;;;;;;;;;;;;;16.59;nan;100611.19;4097409;28;19948;-65
2023/07/23 05:25:39;;;;;;;;;;;;;;;16.59;nan;100611.19;4097215;28;19932;-66
2023/07/23 05:27:43;;;;;;;;;;;;;;;16.59;nan;100613.91;4096609;28;19923;-65
2023/07/23 05:29:45;;;;;;;;;;;;;;;16.56;nan;100609.72;4097439;28;19922;-64
2023/07/23 05:31:47;;;;;;;;;;;;;;;16.55;nan;100602.63;4097310;28;20380;-65
2023/07/23 05:33:50;;;;;;;;;;;;;;;16.57;nan;100603.22;4096889;28;20300;-65
2023/07/23 05:35:52;;;;;;;;;;;;;;;16.58;nan;100599.47;4096045;28;19941;-65
2023/07/23 05:37:54;;;;;;;;;;;;;;;16.58;nan;100604.91;4097148;28;19922;-65
2023/07/23 05:39:56;;;;;;;;;;;;;;;16.59;nan;100600.28;4096734;28;19922;-65
2023/07/23 05:41:58;;;;;;;;;;;;;;;16.61;nan;100600.91;4097116;28;20376;-66
2023/07/23 05:44:02;;;;;;;;;;;;;;;16.62;nan;100601.75;4096386;28;19927;-66
2023/07/23 05:46:04;;;;;;;;;;;;;;;16.64;nan;100597.72;4097971;28;19926;-65
2023/07/23 05:48:06;;;;;;;;;;;;;;;16.66;nan;100606.53;4096217;28;19940;-65
2023/07/23 05:50:10;;;;;;;;;;;;;;;16.67;nan;100605.47;4096665;28;19929;-65
2023/07/23 05:52:12;;;;;;;;;;;;;;;16.69;nan;100599.78;4097039;28;19934;-65
2023/07/23 05:54:14;;;;;;;;;;;;;;;16.70;nan;100594.13;4096153;28;21067;-65
2023/07/23 05:56:16;;;;;;;;;;;;;;;16.72;nan;100599.34;4097458;28;19926;-65
2023/07/23 05:58:18;;;;;;;;;;;;;;;16.73;nan;100599.13;4096664;28;19929;-65
2023/07/23 06:00:22;;;;;;;;;;;;;;;16.75;nan;100596.19;4097138;28;19923;-65
2023/07/23 06:02:23;;;;;;;;;;;;;;;16.76;nan;100595.97;4096557;28;19923;-65
2023/07/23 06:04:25;;;;;;;;;;;;;;;16.80;nan;100593.63;4096791;28;20397;-64
2023/07/23 06:06:28;;;;;;;;;;;;;;;16.84;nan;100596.75;4098672;28;19933;-65
2023/07/23 06:08:30;;;;;;;;;;;;;;;16.85;nan;100585.63;4099263;28;19922;-65
2023/07/23 06:10:32;;;;;;;;;;;;;;;16.89;nan;100581.41;4099607;28;19922;-64
2023/07/23 06:12:34;;;;;;;;;;;;;;;16.94;nan;100586.19;4099853;28;20300;-65
2023/07/23 06:14:37;;;;;;;;;;;;;;;17.00;nan;100581.75;4115402;28;19932;-65
2023/07/23 06:16:41;;;;;;;;;;;;;;;17.05;nan;100582.75;4099814;28;20346;-65
2023/07/23 06:18:43;;;;;;;;;;;;;;;17.09;nan;100583.97;4099770;28;19932;-64
2023/07/23 06:20:46;;;;;;;;;;;;;;;17.17;nan;100582.84;4099576;28;19938;-64
2023/07/23 06:22:48;;;;;;;;;;;;;;;17.24;nan;100580.91;4098281;28;19933;-65
2023/07/23 06:24:50;;;;;;;;;;;;;;;17.29;nan;100581.06;4100042;28;19922;-65
2023/07/23 06:26:52;;;;;;;;;;;;;;;17.37;nan;100579.09;4099921;28;19927;-64
2023/07/23 06:28:54;;;;;;;;;;;;;;;17.43;nan;100587.22;4106443;28;19922;-64
2023/07/23 06:30:56;;;;;;;;;;;;;;;17.47;nan;100584.84;4098216;28;19929;-65
2023/07/23 06:33:00;;;;;;;;;;;;;;;17.51;nan;100579.78;4099173;28;19931;-65
2023/07/23 06:35:04;;;;;;;;;;;;;;;17.55;nan;100572.81;4099570;28;20382;-65
2023/07/23 06:37:07;;;;;;;;;;;;;;;17.59;nan;100574.03;4099451;28;20307;-64
2023/07/23 06:39:09;;;;;;;;;;;;;;;17.63;nan;100567.88;4098059;28;20299;-65
2023/07/23 06:41:11;;;;;;;;;;;;;;;17.69;nan;100565.28;4098902;28;19922;-65
2023/07/23 06:43:14;;;;;;;;;;;;;;;17.73;nan;100567.34;4099391;28;19926;-65
2023/07/23 06:45:16;;;;;;;;;;;;;;;17.78;nan;100572.13;4099816;28;19929;-65
2023/07/23 06:47:19;;;;;;;;;;;;;;;17.83;nan;100573.06;4098239;28;19953;-65
2023/07/23 06:49:28;;;;;;;;;;;;;;;17.89;nan;100570.53;4100058;28;19922;-65
2023/07/23 06:51:30;;;;;;;;;;;;;;;17.92;nan;100565.44;4098778;28;20289;-65
2023/07/23 06:53:32;;;;;;;;;;;;;;;17.95;nan;100558.69;4098401;28;19922;-64
2023/07/23 06:55:35;;;;;;;;;;;;;;;17.95;nan;100556.78;4099861;28;19933;-65
2023/07/23 06:57:38;;;;;;;;;;;;;;;17.97;nan;100564.75;4099163;28;19941;-65
2023/07/23 06:59:40;;;;;;;;;;;;;;;17.99;nan;100559.88;4099404;28;19937;-65
2023/07/23 07:01:42;;;;;;;;;;;;;;;18.02;nan;100556.69;4097703;28;20582;-65
2023/07/23 07:03:45;;;;;;;;;;;;;;;18.06;nan;100559.81;4098817;28;19922;-65
2023/07/23 07:05:48;;;;;;;;;;;;;;;18.09;nan;100567.56;4099964;28;19927;-64
2023/07/23 07:07:50;;;;;;;;;;;;;;;18.15;nan;100570.19;4099213;28;19922;-65
2023/07/23 07:09:54;;;;;;;;;;;;;;;18.19;nan;100560.44;4098545;28;19926;-65
2023/07/23 07:11:56;;;;;;;;;;;;;;;18.23;nan;100568.19;4098847;28;19929;-65
2023/07/23 07:13:58;;;;;;;;;;;;;;;18.26;nan;100565.84;4099423;28;20312;-65
2023/07/23 07:16:00;;;;;;;;;;;;;;;18.29;nan;100557.19;4099275;28;20311;-64
2023/07/23 07:18:04;;;;;;;;;;;;;;;18.33;nan;100561.09;4097176;28;19922;-65
2023/07/23 07:20:07;;;;;;;;;;;;;;;18.40;nan;100557.44;4098799;28;19926;-65
2023/07/23 07:22:10;;;;;;;;;;;;;;;18.45;nan;100566.59;4099329;28;19933;-65
2023/07/23 07:24:15;;;;;;;;;;;;;;;18.50;nan;100561.25;4098879;28;20824;-65
2023/07/23 07:26:16;;;;;;;;;;;;;;;18.57;nan;100554.84;4098905;28;19933;-65
2023/07/23 07:28:18;;;;;;;;;;;;;;;18.61;nan;100559.63;4098461;28;19926;-65
2023/07/23 07:30:21;;;;;;;;;;;;;;;18.66;nan;100557.00;4097251;28;19942;-65
2023/07/23 07:32:23;;;;;;;;;;;;;;;18.71;nan;100556.31;4098219;28;19934;-64
2023/07/23 07:34:25;;;;;;;;;;;;;;;18.75;nan;100557.50;4099516;28;19923;-65
2023/07/23 07:36:27;;;;;;;;;;;;;;;18.81;nan;100553.84;4099315;28;19922;-65
2023/07/23 07:38:30;;;;;;;;;;;;;;;18.87;nan;100541.13;4098773;28;19937;-66
2023/07/23 07:40:32;;;;;;;;;;;;;;;18.91;nan;100545.88;4098337;28;19926;-64
2023/07/23 07:42:35;;;;;;;;;;;;;;;18.96;nan;100542.44;4098583;28;20229;-65
2023/07/23 07:44:37;;;;;;;;;;;;;;;19.02;nan;100543.41;4098677;28;20393;-64
2023/07/23 07:46:39;;;;;;;;;;;;;;;19.04;nan;100547.56;4098880;28;20297;-65
2023/07/23 07:48:42;;;;;;;;;;;;;;;19.08;nan;100536.97;4097910;28;19949;-66
2023/07/23 07:50:44;;;;;;;;;;;;;;;19.14;nan;100544.25;4097382;28;19927;-65
2023/07/23 07:52:47;;;;;;;;;;;;;;;19.19;nan;100543.53;4099070;28;19956;-65
2023/07/23 07:54:51;;;;;;;;;;;;;;;19.23;nan;100547.44;4098831;28;19926;-65
2023/07/23 07:56:54;;;;;;;;;;;;;;;19.29;nan;100545.66;4097628;28;19922;-65
2023/07/23 07:58:56;;;;;;;;;;;;;;;19.33;nan;100544.09;4098502;28;19922;-65
2023/07/23 08:00:58;;;;;;;;;;;;;;;19.35;nan;100542.78;4098692;28;19928;-66
2023/07/23 08:03:01;;;;;;;;;;;;;;;19.40;nan;100536.59;4097456;28;19922;-65
2023/07/23 08:05:04;;;;;;;;;;;;;;;19.41;nan;100541.00;4097851;28;19945;-65
2023/07/23 08:07:07;;;;;;;;;;;;;;;19.43;nan;100541.56;4098879;28;20403;-66
2023/07/23 08:09:09;;;;;;;;;;;;;;;19.49;nan;100537.06;4098067;28;19926;-65
2023/07/23 08:11:13;;;;;;;;;;;;;;;19.51;nan;100534.91;4098629;28;20285;-65
2023/07/23 08:13:14;;;;;;;;;;;;;;;19.54;nan;100532.50;4097321;28;19933;-64
2023/07/23 08:15:17;;;;;;;;;;;;;;;19.55;nan;100528.69;4098594;28;19926;-65
2023/07/23 08:17:20;;;;;;;;;;;;;;;19.58;nan;100521.91;4097247;28;20325;-64
2023/07/23 08:19:22;;;;;;;;;;;;;;;19.61;nan;100525.00;4098427;28;19929;-65
2023/07/23 08:21:26;;;;;;;;;;;;;;;19.63;nan;100522.00;4098013;28;19922;-65
2023/07/23 08:23:28;;;;;;;;;;;;;;;19.66;nan;100510.56;4098189;28;19922;-65
2023/07/23 08:25:32;;;;;;;;;;;;;;;19.70;nan;100513.63;4098293;28;19937;-65
2023/07/23 08:27:35;;;;;;;;;;;;;;;19.72;nan;100511.50;4097487;28;19928;-66
2023/07/23 08:29:38;;;;;;;;;;;;;;;19.74;nan;100518.38;4097340;28;19923;-64
2023/07/23 08:31:40;;;;;;;;;;;;;;;19.80;nan;100514.72;4098209;28;19926;-65
2023/07/23 08:33:42;;;;;;;;;;;;;;;19.84;nan;100519.72;4097891;28;19926;-64
2023/07/23 08:35:43;;;;;;;;;;;;;;;19.86;nan;100521.13;4097573;28;19928;-65
2023/07/23 08:37:46;;;;;;;;;;;;;;;19.88;nan;100520.88;4097369;28;19923;-64
2023/07/23 08:39:48;;;;;;;;;;;;;;;19.89;nan;100517.06;4098197;28;19926;-65
2023/07/23 08:41:55;;;;;;;;;;;;;;;19.88;nan;100513.50;4098439;28;19930;-65
2023/07/23 08:44:22;;;;;;;;;;;;;;;19.91;nan;100513.00;4096885;28;19923;-64
2023/07/23 08:46:25;;;;;;;;;;;;;;;19.93;nan;100519.06;4098209;28;20311;-65
2023/07/23 08:48:29;;;;;;;;;;;;;;;19.95;nan;100519.66;4097675;28;19949;-64
2023/07/23 08:50:31;;;;;;;;;;;;;;;19.97;nan;100533.13;4096595;28;19937;-64
2023/07/23 08:52:33;;;;;;;;;;;;;;;20.02;nan;100513.22;4097643;28;19931;-64
2023/07/23 08:54:35;;;;;;;;;;;;;;;20.02;nan;100518.69;4098045;28;19929;-64
2023/07/23 08:56:38;;;;;;;;;;;;;;;20.02;nan;100521.44;4095409;28;19923;-62
2023/07/23 08:58:40;;;;;;;;;;;;;;;20.05;nan;100513.53;4096373;28;19930;-66
2023/07/23 09:00:44;;;;;;;;;;;;;;;20.05;nan;100512.72;4097688;28;19926;-66
2023/07/23 09:02:47;;;;;;;;;;;;;;;20.05;nan;100508.06;4097299;28;19931;-64
2023/07/23 09:04:51;;;;;;;;;;;;;;;20.07;nan;100514.13;4097525;28;19923;-65
2023/07/23 09:06:53;;;;;;;;;;;;;;;20.09;nan;100514.69;4097497;28;19923;-62
2023/07/23 09:08:54;;;;;;;;;;;;;;;20.10;nan;100510.88;4097207;28;19923;-64
2023/07/23 09:10:56;;;;;;;;;;;;;;;20.12;nan;100507.91;4097881;28;19946;-66
2023/07/23 09:12:58;;;;;;;;;;;;;;;20.12;nan;100507.91;4096514;28;20384;-65
2023/07/23 09:15:04;;;;;;;;;;;;;;;20.14;nan;100505.72;4098121;28;19948;-62
2023/07/23 09:17:10;;;;;;;;;;;;;;;20.15;nan;100512.91;4097866;28;19933;-63
2023/07/23 09:19:13;;;;;;;;;;;;;;;20.17;nan;100506.09;4097308;28;19932;-64
2023/07/23 09:21:22;;;;;;;;;;;;;;;20.21;nan;100500.13;4096918;28;19927;-61
2023/07/23 09:23:25;;;;;;;;;;;;;;;20.22;nan;100493.53;4097044;28;19933;-63
2023/07/23 09:25:29;;;;;;;;;;;;;;;20.26;nan;100491.97;4097416;28;20293;-64
2023/07/23 09:27:35;;;;;;;;;;;;;;;20.30;nan;100498.63;4097102;28;19926;-67
2023/07/23 09:29:36;;;;;;;;;;;;;;;20.34;nan;100494.31;4097273;28;19929;-66
2023/07/23 09:31:39;;;;;;;;;;;;;;;20.35;nan;100501.47;4097501;28;19928;-65
2023/07/23 09:33:42;;;;;;;;;;;;;;;20.37;nan;100492.97;4096943;28;19922;-64
2023/07/23 09:35:44;;;;;;;;;;;;;;;20.40;nan;100495.22;4097390;28;19929;-65
2023/07/23 09:37:47;;;;;;;;;;;;;;;20.42;nan;100488.41;4095652;28;19923;-66
2023/07/23 09:39:50;;;;;;;;;;;;;;;20.46;nan;100488.75;4097363;28;20443;-66
2023/07/23 09:41:52;;;;;;;;;;;;;;;20.48;nan;100470.13;4096981;28;20317;-64
2023/07/23 09:43:55;;;;;;;;;;;;;;;20.50;nan;100482.53;4095882;28;19929;-65
2023/07/23 09:45:57;;;;;;;;;;;;;;;20.53;nan;100476.53;4097268;28;20415;-66
2023/07/23 09:47:59;;;;;;;;;;;;;;;20.56;nan;100469.69;4097513;28;19923;-65
2023/07/23 09:50:03;;;;;;;;;;;;;;;20.59;nan;100473.88;4096999;28;20373;-65
2023/07/23 09:52:07;;;;;;;;;;;;;;;20.60;nan;100473.63;4096465;28;20395;-64
2023/07/23 09:54:08;;;;;;;;;;;;;;;20.61;nan;100478.03;4096802;28;19933;-66
2023/07/23 09:56:11;;;;;;;;;;;;;;;20.66;nan;100469.09;4096055;28;19922;-65
2023/07/23 09:58:13;;;;;;;;;;;;;;;20.71;nan;100466.41;4096898;28;19930;-63
2023/07/23 10:00:15;;;;;;;;;;;;;;;20.75;nan;100455.75;4096661;28;19929;-64
2023/07/23 10:02:18;;;;;;;;;;;;;;;20.76;nan;100454.69;4097734;28;19923;-65
2023/07/23 10:04:20;;;;;;;;;;;;;;;20.78;nan;100450.56;4096705;28;19922;-64
2023/07/23 10:06:24;;;;;;;;;;;;;;;20.80;nan;100451.19;4097433;28;19936;-65
2023/07/23 10:08:26;;;;;;;;;;;;;;;20.84;nan;100437.78;4096815;28;19923;-66
2023/07/23 10:10:28;;;;;;;;;;;;;;;20.86;nan;100449.31;4096934;28;19941;-66
2023/07/23 10:12:30;;;;;;;;;;;;;;;20.87;nan;100435.34;4096410;28;19941;-66
2023/07/23 10:14:32;;;;;;;;;;;;;;;20.87;nan;100429.03;4097282;28;19949;-66
2023/07/23 10:16:37;;;;;;;;;;;;;;;20.89;nan;100435.09;4096512;28;19933;-65
2023/07/23 10:18:40;;;;;;;;;;;;;;;20.92;nan;100431.84;4096233;28;19922;-64
2023/07/23 10:20:42;;;;;;;;;;;;;;;20.97;nan;100426.44;4096957;28;20505;-64
2023/07/23 10:22:46;;;;;;;;;;;;;;;21.03;nan;100427.31;4095621;28;20064;-62
2023/07/23 10:24:49;;;;;;;;;;;;;;;21.04;nan;100431.75;4096968;28;19923;-64
2023/07/23 10:26:53;;;;;;;;;;;;;;;21.10;nan;100427.13;4097283;28;19929;-64
2023/07/23 10:28:59;;;;;;;;;;;;;;;21.14;nan;100429.09;4096702;28;20293;-65
2023/07/23 10:31:17;;;;;;;;;;;;;;;21.17;nan;100422.28;4096471;28;19926;-64
2023/07/23 10:33:29;;;;;;;;;;;;;;;21.19;nan;100417.34;4093349;28;20835;-69
2023/07/23 10:35:46;;;;;;;;;;;;;;;21.24;nan;100433.91;4096694;28;20385;-69
2023/07/23 10:38:03;;;;;;;;;;;;;;;21.33;nan;100417.81;4096529;28;19929;-70
2023/07/23 10:40:07;;;;;;;;;;;;;;;21.39;nan;100425.03;4096539;28;19930;-70
2023/07/23 10:42:15;;;;;;;;;;;;;;;21.46;nan;100424.81;4096144;28;20400;-71
2023/07/23 10:44:21;;;;;;;;;;;;;;;21.53;nan;100411.75;4095145;28;20903;-65
2023/07/23 10:46:23;;;;;;;;;;;;;;;21.57;nan;100407.41;4097251;28;19922;-65
2023/07/23 10:48:26;;;;;;;;;;;;;;;21.58;nan;100407.16;4096846;28;19932;-65